Time;durP1;ratioP1;P1;durP2;ratioP2;P2;SDS_P1;SDS_P2;PMS_P1;PMS_P2;Temp;Humidity;BMP_temperature;BMP_pressure;BME280_temperature;BME280_humidity;BME280_pressure;Samples;Min_cycle;Max_cycle;Signal;HPM_P1;HPM_P2
2023/08/28 00:02:02;;;;;;;2.33;0.50;;;;;;;;;;5072365;28;20049;-64
2023/08/28 00:04:29;;;;;;;1.63;0.40;;;;;;;;;;5064509;28;20062;-63
2023/08/28 00:06:56;;;;;;;1.38;0.52;;;;;;;;;;5070792;28;20055;-63
2023/08/28 00:09:24;;;;;;;1.55;0.50;;;;;;;;;;5067891;28;20049;-64
2023/08/28 00:11:51;;;;;;;1.02;0.45;;;;;;;;;;5072753;28;20067;-64
2023/08/28 00:14:19;;;;;;;0.65;0.40;;;;;;;;;;5071882;28;20127;-65
2023/08/28 00:16:47;;;;;;;2.33;0.50;;;;;;;;;;5069401;28;20060;-64
2023/08/28 00:19:14;;;;;;;0.82;0.50;;;;;;;;;;5065344;28;20052;-65
2023/08/28 00:21:42;;;;;;;0.60;0.38;;;;;;;;;;5063672;28;20377;-65
2023/08/28 00:24:09;;;;;;;1.10;0.50;;;;;;;;;;5068563;28;20055;-64
2023/08/28 00:26:36;;;;;;;1.52;0.40;;;;;;;;;;5070995;28;20053;-64
2023/08/28 00:29:04;;;;;;;0.47;0.40;;;;;;;;;;5072796;28;20052;-64
2023/08/28 00:31:31;;;;;;;1.73;0.40;;;;;;;;;;5070929;28;20078;-64
2023/08/28 00:33:59;;;;;;;1.13;0.50;;;;;;;;;;5072190;28;20044;-64
2023/08/28 00:36:27;;;;;;;1.00;0.45;;;;;;;;;;5054030;28;20053;-64
2023/08/28 00:38:54;;;;;;;0.70;0.50;;;;;;;;;;5053728;28;20040;-63
2023/08/28 00:41:21;;;;;;;0.77;0.50;;;;;;;;;;5065476;28;20792;-66
2023/08/28 00:43:48;;;;;;;1.10;0.50;;;;;;;;;;5070579;28;20048;-64
2023/08/28 00:46:16;;;;;;;1.08;0.45;;;;;;;;;;5068466;28;20514;-64
2023/08/28 00:48:43;;;;;;;1.63;0.40;;;;;;;;;;5061804;28;20055;-64
2023/08/28 00:51:12;;;;;;;1.10;0.50;;;;;;;;;;5070254;28;20507;-64
2023/08/28 00:53:39;;;;;;;3.17;0.60;;;;;;;;;;5069275;28;20044;-63
2023/08/28 00:56:06;;;;;;;3.35;0.60;;;;;;;;;;5064200;28;20072;-64
2023/08/28 00:58:34;;;;;;;1.80;0.50;;;;;;;;;;5065281;28;20048;-64
2023/08/28 01:01:02;;;;;;;2.50;0.43;;;;;;;;;;5064372;28;20060;-64
2023/08/28 01:03:29;;;;;;;2.55;0.70;;;;;;;;;;5063049;28;20040;-63
2023/08/28 01:06:02;;;;;;;1.23;0.50;;;;;;;;;;5053124;28;20079;-63
2023/08/28 01:08:32;;;;;;;3.63;0.50;;;;;;;;;;5070908;28;20048;-64
2023/08/28 01:11:00;;;;;;;1.63;0.70;;;;;;;;;;5066805;28;20052;-66
2023/08/28 01:13:35;;;;;;;1.95;0.63;;;;;;;;;;5070939;28;20079;-63
2023/08/28 01:16:02;;;;;;;0.80;0.50;;;;;;;;;;5061770;28;20124;-64
2023/08/28 01:18:29;;;;;;;1.88;0.60;;;;;;;;;;5069654;28;20044;-64
2023/08/28 01:20:57;;;;;;;0.60;0.57;;;;;;;;;;5071051;28;20076;-64
2023/08/28 01:23:28;;;;;;;1.23;0.50;;;;;;;;;;5069295;28;20055;-64
2023/08/28 01:25:57;;;;;;;0.65;0.50;;;;;;;;;;5071634;28;20052;-64
2023/08/28 01:28:26;;;;;;;1.00;0.63;;;;;;;;;;5069789;28;20047;-64
2023/08/28 01:30:53;;;;;;;1.45;0.60;;;;;;;;;;5071116;28;20109;-64
2023/08/28 01:33:21;;;;;;;2.10;0.50;;;;;;;;;;5052544;28;20052;-63
2023/08/28 01:35:53;;;;;;;3.85;0.57;;;;;;;;;;5069695;28;20044;-64
2023/08/28 01:38:23;;;;;;;1.88;0.60;;;;;;;;;;5066109;28;20043;-64
2023/08/28 01:40:51;;;;;;;2.80;0.70;;;;;;;;;;5068468;28;20045;-63
2023/08/28 01:43:21;;;;;;;1.05;0.70;;;;;;;;;;5066633;28;20048;-63
2023/08/28 01:45:49;;;;;;;5.95;0.50;;;;;;;;;;5063209;28;20048;-64
2023/08/28 01:48:16;;;;;;;0.70;0.40;;;;;;;;;;5069210;28;20268;-64
2023/08/28 01:50:43;;;;;;;0.60;0.40;;;;;;;;;;5069818;28;20497;-63
2023/08/28 01:53:11;;;;;;;1.38;0.57;;;;;;;;;;5065376;28;20048;-64
2023/08/28 01:56:05;;;;;;;2.70;0.50;;;;;;;;;;5052097;28;20052;-64
2023/08/28 01:58:32;;;;;;;;;;;;;;;;;;5070545;28;20063;-63
2023/08/28 02:01:00;;;;;;;0.43;0.30;;;;;;;;;;5050087;28;19928;-64
2023/08/28 02:03:29;;;;;;;1.55;0.35;;;;;;;;;;5069458;28;20053;-63
2023/08/28 02:05:56;;;;;;;0.77;0.40;;;;;;;;;;5071077;28;20063;-63
2023/08/28 02:08:23;;;;;;;3.50;0.50;;;;;;;;;;5069691;28;20053;-64
2023/08/28 02:10:51;;;;;;;1.05;0.47;;;;;;;;;;5066254;28;20048;-64
2023/08/28 02:13:18;;;;;;;0.60;0.30;;;;;;;;;;5067982;28;20057;-64
2023/08/28 02:15:45;;;;;;;4.50;0.50;;;;;;;;;;5065550;28;20049;-64
2023/08/28 02:18:13;;;;;;;1.92;0.57;;;;;;;;;;5070500;28;20051;-64
2023/08/28 02:20:41;;;;;;;0.88;0.43;;;;;;;;;;5067693;28;20048;-63
2023/08/28 02:23:08;;;;;;;1.00;0.30;;;;;;;;;;5052707;28;20135;-65
2023/08/28 02:25:35;;;;;;;0.95;0.30;;;;;;;;;;5069957;28;20079;-65
2023/08/28 02:28:03;;;;;;;2.00;0.45;;;;;;;;;;5066534;28;20056;-63
2023/08/28 02:30:30;;;;;;;2.40;0.50;;;;;;;;;;5067693;28;20060;-64
2023/08/28 02:32:57;;;;;;;0.52;0.35;;;;;;;;;;5066827;28;20052;-63
2023/08/28 02:35:26;;;;;;;0.98;0.40;;;;;;;;;;5069803;28;20036;-64
2023/08/28 02:37:53;;;;;;;0.65;0.40;;;;;;;;;;5064681;28;20048;-64
2023/08/28 02:40:21;;;;;;;0.45;0.40;;;;;;;;;;5063244;28;20067;-64
2023/08/28 02:42:48;;;;;;;2.97;0.50;;;;;;;;;;5069738;28;20055;-63
2023/08/28 02:45:15;;;;;;;0.50;0.40;;;;;;;;;;5065810;28;20488;-65
2023/08/28 02:47:42;;;;;;;0.82;0.50;;;;;;;;;;5068496;28;20542;-63
2023/08/28 02:50:10;;;;;;;1.15;0.55;;;;;;;;;;5068068;28;20045;-64
2023/08/28 02:52:38;;;;;;;1.75;0.40;;;;;;;;;;5070339;28;20135;-63
2023/08/28 02:55:06;;;;;;;0.95;0.40;;;;;;;;;;5061791;28;20503;-64
2023/08/28 02:57:33;;;;;;;1.30;0.50;;;;;;;;;;5067551;28;20071;-65
2023/08/28 03:00:00;;;;;;;1.02;0.63;;;;;;;;;;5069962;28;20044;-65
2023/08/28 03:02:27;;;;;;;0.98;0.50;;;;;;;;;;5068588;28;20101;-64
2023/08/28 03:04:55;;;;;;;2.15;0.50;;;;;;;;;;5063420;28;20072;-64
2023/08/28 03:07:22;;;;;;;1.55;0.60;;;;;;;;;;5067839;28;20045;-63
2023/08/28 03:09:50;;;;;;;1.50;0.50;;;;;;;;;;5047487;28;20049;-64
2023/08/28 03:12:18;;;;;;;1.98;0.52;;;;;;;;;;5065712;28;20059;-64
2023/08/28 03:14:45;;;;;;;0.65;0.50;;;;;;;;;;5060910;28;20064;-63
2023/08/28 03:17:12;;;;;;;2.95;0.68;;;;;;;;;;5066958;28;20048;-63
2023/08/28 03:19:39;;;;;;;2.22;0.60;;;;;;;;;;5065385;28;20055;-65
2023/08/28 03:22:06;;;;;;;1.30;0.50;;;;;;;;;;5059740;28;20041;-64
2023/08/28 03:24:34;;;;;;;0.70;0.45;;;;;;;;;;5065051;28;20055;-65
2023/08/28 03:27:02;;;;;;;0.80;0.60;;;;;;;;;;5067238;28;20097;-63
2023/08/28 03:29:29;;;;;;;1.98;0.60;;;;;;;;;;5067425;28;20049;-64
2023/08/28 03:31:57;;;;;;;1.77;0.70;;;;;;;;;;5069585;28;20463;-64
2023/08/28 03:34:24;;;;;;;1.50;0.80;;;;;;;;;;5068767;28;20074;-63
2023/08/28 03:36:51;;;;;;;1.95;0.55;;;;;;;;;;5051721;28;20067;-64
2023/08/28 03:39:19;;;;;;;0.63;0.52;;;;;;;;;;5066382;28;20045;-63
2023/08/28 03:41:46;;;;;;;3.55;0.75;;;;;;;;;;5063970;28;20052;-63
2023/08/28 03:44:14;;;;;;;2.05;0.65;;;;;;;;;;5065809;28;20041;-64
2023/08/28 03:46:42;;;;;;;2.15;0.80;;;;;;;;;;5062076;28;20519;-63
2023/08/28 03:49:09;;;;;;;1.08;0.80;;;;;;;;;;5069380;28;20085;-64
2023/08/28 03:51:36;;;;;;;1.67;0.77;;;;;;;;;;5067435;28;20063;-64
2023/08/28 03:54:03;;;;;;;0.93;0.88;;;;;;;;;;5062702;28;20529;-63
2023/08/28 03:56:31;;;;;;;1.20;0.88;;;;;;;;;;5065462;28;20061;-64
2023/08/28 03:58:58;;;;;;;3.22;0.95;;;;;;;;;;5065251;28;20518;-64
2023/08/28 04:01:26;;;;;;;2.67;0.90;;;;;;;;;;5067551;28;20049;-64
2023/08/28 04:03:54;;;;;;;1.75;0.90;;;;;;;;;;5071325;28;20041;-64
2023/08/28 04:06:21;;;;;;;1.02;0.90;;;;;;;;;;5069444;28;20143;-64
2023/08/28 04:08:49;;;;;;;1.42;1.00;;;;;;;;;;5072003;28;20064;-64
2023/08/28 04:11:16;;;;;;;2.00;1.20;;;;;;;;;;5071996;28;20106;-64
2023/08/28 04:13:43;;;;;;;2.78;0.90;;;;;;;;;;5072949;28;20053;-63
2023/08/28 04:16:11;;;;;;;5.00;1.10;;;;;;;;;;5052529;28;20492;-64
2023/08/28 04:18:39;;;;;;;1.92;1.17;;;;;;;;;;5070870;28;20060;-64
2023/08/28 04:21:07;;;;;;;2.17;1.30;;;;;;;;;;5070083;28;20059;-64
2023/08/28 04:23:34;;;;;;;1.95;1.10;;;;;;;;;;5069569;28;20129;-63
2023/08/28 04:26:01;;;;;;;2.25;0.98;;;;;;;;;;5069838;28;20128;-65
2023/08/28 04:28:29;;;;;;;1.85;1.10;;;;;;;;;;5069597;28;20276;-64
2023/08/28 04:30:57;;;;;;;7.25;1.20;;;;;;;;;;5062943;28;20051;-63
2023/08/28 04:33:24;;;;;;;2.08;1.20;;;;;;;;;;5052021;28;20053;-64
2023/08/28 04:35:53;;;;;;;4.13;1.13;;;;;;;;;;5070541;28;20090;-63
2023/08/28 04:38:20;;;;;;;1.90;1.10;;;;;;;;;;5062483;28;20041;-64
2023/08/28 04:40:47;;;;;;;4.00;1.27;;;;;;;;;;5070894;28;20055;-64
2023/08/28 04:43:15;;;;;;;2.28;1.10;;;;;;;;;;5069552;28;20044;-63
2023/08/28 04:45:42;;;;;;;2.85;1.25;;;;;;;;;;5071530;28;20522;-65
2023/08/28 04:48:09;;;;;;;1.67;1.05;;;;;;;;;;5069958;28;20036;-64
2023/08/28 04:50:36;;;;;;;2.65;1.30;;;;;;;;;;5064970;28;20060;-64
2023/08/28 04:53:05;;;;;;;4.40;1.20;;;;;;;;;;5069898;28;20048;-64
2023/08/28 04:55:32;;;;;;;5.65;1.27;;;;;;;;;;5070595;28;20152;-65
2023/08/28 04:57:59;;;;;;;2.83;1.30;;;;;;;;;;5069851;28;20412;-65
2023/08/28 05:00:27;;;;;;;2.33;1.17;;;;;;;;;;5066944;28;20063;-64
2023/08/28 05:02:54;;;;;;;1.90;1.20;;;;;;;;;;5053970;28;20425;-64
2023/08/28 05:05:21;;;;;;;1.50;1.20;;;;;;;;;;5053309;28;20059;-64
2023/08/28 05:07:49;;;;;;;1.50;1.35;;;;;;;;;;5071573;28;20044;-64
2023/08/28 05:10:17;;;;;;;2.75;1.55;;;;;;;;;;5065072;28;20055;-65
2023/08/28 05:12:44;;;;;;;3.28;1.33;;;;;;;;;;5055688;28;20048;-64
2023/08/28 05:15:12;;;;;;;5.43;1.67;;;;;;;;;;5063012;28;20047;-64
2023/08/28 05:17:39;;;;;;;2.42;1.58;;;;;;;;;;5066848;28;20084;-65
2023/08/28 05:20:07;;;;;;;2.85;1.40;;;;;;;;;;5070854;28;20048;-64
2023/08/28 05:22:35;;;;;;;2.67;1.45;;;;;;;;;;5065231;28;20045;-63
2023/08/28 05:25:02;;;;;;;3.33;1.33;;;;;;;;;;5065583;28;20370;-64
2023/08/28 05:27:30;;;;;;;3.50;1.25;;;;;;;;;;5061738;28;20055;-64
2023/08/28 05:29:58;;;;;;;3.90;1.35;;;;;;;;;;5055996;28;20056;-64
2023/08/28 05:32:25;;;;;;;2.72;1.50;;;;;;;;;;5069207;28;20045;-64
2023/08/28 05:34:53;;;;;;;2.00;1.40;;;;;;;;;;5059883;28;20049;-63
2023/08/28 05:37:20;;;;;;;5.75;1.50;;;;;;;;;;5070662;28;20053;-64
2023/08/28 05:39:48;;;;;;;2.47;1.50;;;;;;;;;;5067469;28;20408;-63
2023/08/28 05:42:15;;;;;;;3.08;1.40;;;;;;;;;;5070957;28;20044;-65
2023/08/28 05:44:45;;;;;;;2.55;1.42;;;;;;;;;;5070228;28;20040;-64
2023/08/28 05:47:12;;;;;;;2.13;1.42;;;;;;;;;;5070778;28;20102;-65
2023/08/28 05:49:39;;;;;;;3.80;1.50;;;;;;;;;;5070147;28;20056;-64
2023/08/28 05:52:07;;;;;;;3.30;1.50;;;;;;;;;;5071054;28;20064;-64
2023/08/28 05:54:34;;;;;;;2.95;1.50;;;;;;;;;;5069835;28;20491;-63
2023/08/28 05:57:01;;;;;;;2.83;1.55;;;;;;;;;;5070837;28;20044;-64
2023/08/28 05:59:28;;;;;;;2.60;1.60;;;;;;;;;;5059248;28;20563;-64
2023/08/28 06:01:57;;;;;;;2.00;1.40;;;;;;;;;;5069347;28;20059;-64
2023/08/28 06:04:24;;;;;;;2.92;1.85;;;;;;;;;;5069339;28;20517;-64
2023/08/28 06:06:52;;;;;;;4.63;1.50;;;;;;;;;;5069046;28;20048;-64
2023/08/28 06:09:19;;;;;;;2.95;1.60;;;;;;;;;;5070539;28;20045;-64
2023/08/28 06:11:46;;;;;;;2.80;1.30;;;;;;;;;;5056202;28;20052;-65
2023/08/28 06:14:14;;;;;;;2.83;1.58;;;;;;;;;;5061318;28;20053;-64
2023/08/28 06:16:41;;;;;;;1.92;1.30;;;;;;;;;;5070020;28;20045;-64
2023/08/28 06:19:10;;;;;;;6.07;1.90;;;;;;;;;;5068917;28;20045;-65
2023/08/28 06:21:37;;;;;;;4.20;1.67;;;;;;;;;;5064557;28;20075;-64
2023/08/28 06:24:04;;;;;;;6.13;1.65;;;;;;;;;;5051596;28;20049;-64
2023/08/28 06:26:31;;;;;;;1.80;1.60;;;;;;;;;;5065615;28;20068;-65
2023/08/28 06:28:59;;;;;;;3.35;1.70;;;;;;;;;;5065189;28;20084;-64
2023/08/28 06:31:26;;;;;;;7.60;2.00;;;;;;;;;;5069472;28;20542;-67
2023/08/28 06:33:53;;;;;;;3.75;1.60;;;;;;;;;;5064000;28;20045;-65
2023/08/28 06:36:22;;;;;;;3.70;2.00;;;;;;;;;;5051655;28;20051;-64
2023/08/28 06:38:51;;;;;;;3.63;1.70;;;;;;;;;;5063232;28;20367;-64
2023/08/28 06:41:18;;;;;;;5.55;1.65;;;;;;;;;;5066116;28;20045;-64
2023/08/28 06:43:45;;;;;;;3.47;2.08;;;;;;;;;;5056386;28;20656;-64
2023/08/28 06:46:12;;;;;;;4.60;1.63;;;;;;;;;;5068476;28;20396;-64
2023/08/28 06:48:43;;;;;;;2.88;1.60;;;;;;;;;;5049292;28;20049;-64
2023/08/28 06:51:10;;;;;;;3.22;1.40;;;;;;;;;;5068570;28;20051;-64
2023/08/28 06:53:39;;;;;;;2.30;1.30;;;;;;;;;;5061930;28;20041;-64
2023/08/28 06:56:07;;;;;;;2.83;1.17;;;;;;;;;;5066787;28;20359;-64
2023/08/28 06:58:34;;;;;;;2.53;1.10;;;;;;;;;;5070073;28;20067;-64
2023/08/28 07:01:01;;;;;;;3.60;1.48;;;;;;;;;;5067874;28;20044;-64
2023/08/28 07:03:29;;;;;;;1.55;0.82;;;;;;;;;;5069351;28;20055;-65
2023/08/28 07:05:56;;;;;;;5.68;0.80;;;;;;;;;;5069929;28;20052;-64
2023/08/28 07:08:23;;;;;;;1.95;0.57;;;;;;;;;;5069217;28;20070;-66
2023/08/28 07:10:52;;;;;;;5.32;0.60;;;;;;;;;;5066702;28;20439;-64
2023/08/28 07:13:19;;;;;;;2.10;0.50;;;;;;;;;;5068894;28;20052;-65
2023/08/28 07:15:55;;;;;;;1.10;0.70;;;;;;;;;;5068190;28;20523;-64
2023/08/28 07:18:22;;;;;;;2.67;0.60;;;;;;;;;;5064247;28;20048;-65
2023/08/28 07:20:50;;;;;;;1.48;0.40;;;;;;;;;;5064410;28;20381;-64
2023/08/28 07:23:17;;;;;;;0.85;0.47;;;;;;;;;;5066559;28;20055;-64
2023/08/28 07:25:45;;;;;;;0.60;0.47;;;;;;;;;;5053591;28;20052;-65
2023/08/28 07:28:14;;;;;;;0.95;0.40;;;;;;;;;;5062059;28;20048;-64
2023/08/28 07:30:42;;;;;;;1.60;0.38;;;;;;;;;;5058312;28;20080;-65
2023/08/28 07:33:09;;;;;;;1.75;0.60;;;;;;;;;;5060486;28;20052;-65
2023/08/28 07:35:37;;;;;;;1.17;0.32;;;;;;;;;;5067576;28;20113;-65
2023/08/28 07:38:05;;;;;;;1.75;0.50;;;;;;;;;;5062155;28;20385;-64
2023/08/28 07:40:32;;;;;;;1.48;0.30;;;;;;;;;;5052229;28;20060;-66
2023/08/28 07:42:59;;;;;;;3.22;0.55;;;;;;;;;;5070629;28;20055;-64
2023/08/28 07:45:28;;;;;;;2.15;0.50;;;;;;;;;;5074096;28;20467;-65
2023/08/28 07:47:56;;;;;;;0.80;0.35;;;;;;;;;;5071327;28;20057;-65
2023/08/28 07:50:23;;;;;;;2.30;0.40;;;;;;;;;;5065886;28;20095;-64
2023/08/28 07:52:51;;;;;;;0.70;0.30;;;;;;;;;;5063309;28;20052;-64
2023/08/28 07:55:18;;;;;;;1.10;0.38;;;;;;;;;;5073134;28;20052;-64
2023/08/28 07:57:45;;;;;;;1.13;0.30;;;;;;;;;;5072135;28;20120;-65
2023/08/28 08:00:13;;;;;;;1.80;0.30;;;;;;;;;;5073162;28;20242;-64
2023/08/28 08:02:42;;;;;;;0.45;0.30;;;;;;;;;;5072566;28;20407;-65
2023/08/28 08:05:11;;;;;;;2.28;0.40;;;;;;;;;;5070522;28;20511;-64
2023/08/28 08:07:40;;;;;;;1.70;0.40;;;;;;;;;;5073800;28;20094;-65
2023/08/28 08:10:08;;;;;;;0.68;0.40;;;;;;;;;;5071523;28;20048;-65
2023/08/28 08:12:36;;;;;;;3.00;0.40;;;;;;;;;;5072043;28;20057;-65
2023/08/28 08:15:03;;;;;;;0.88;0.40;;;;;;;;;;5071975;28;20052;-65
2023/08/28 08:17:31;;;;;;;0.77;0.32;;;;;;;;;;5067582;28;20048;-64
2023/08/28 08:19:59;;;;;;;1.88;0.30;;;;;;;;;;5068014;28;20052;-65
2023/08/28 08:22:26;;;;;;;2.75;0.40;;;;;;;;;;5069884;28;20079;-65
2023/08/28 08:24:54;;;;;;;0.57;0.32;;;;;;;;;;5072852;28;20048;-65
2023/08/28 08:27:21;;;;;;;2.55;0.43;;;;;;;;;;5065924;28;20052;-65
2023/08/28 08:29:48;;;;;;;2.88;0.47;;;;;;;;;;5072039;28;20559;-66
2023/08/28 08:32:16;;;;;;;1.92;0.40;;;;;;;;;;5071755;28;20054;-65
2023/08/28 08:34:43;;;;;;;1.67;0.40;;;;;;;;;;5065359;28;20215;-66
2023/08/28 08:37:12;;;;;;;1.00;0.35;;;;;;;;;;5050228;28;21337;-65
2023/08/28 08:39:39;;;;;;;1.10;0.30;;;;;;;;;;5071222;28;20384;-65
2023/08/28 08:42:07;;;;;;;0.98;0.45;;;;;;;;;;5065682;28;20515;-66
2023/08/28 08:44:34;;;;;;;0.60;0.30;;;;;;;;;;5069267;28;20396;-65
2023/08/28 08:47:03;;;;;;;4.72;0.60;;;;;;;;;;5069527;28;20502;-66
2023/08/28 08:49:32;;;;;;;2.05;0.55;;;;;;;;;;5066012;28;20061;-65
2023/08/28 08:52:03;;;;;;;1.60;0.40;;;;;;;;;;5069634;28;20400;-65
2023/08/28 08:54:36;;;;;;;0.80;0.40;;;;;;;;;;5070661;28;20466;-65
2023/08/28 08:57:04;;;;;;;;;;;;;;;;;;5071354;28;20051;-65
2023/08/28 08:59:32;;;;;;;1.15;0.50;;;;;;;;;;5067449;28;19970;-66
2023/08/28 09:02:02;;;;;;;0.57;0.40;;;;;;;;;;5065590;28;20427;-66
2023/08/28 09:04:30;;;;;;;1.52;0.32;;;;;;;;;;5070567;28;20076;-66
2023/08/28 09:06:58;;;;;;;1.38;0.40;;;;;;;;;;5064316;28;20135;-65
2023/08/28 09:09:25;;;;;;;1.67;0.47;;;;;;;;;;5072505;28;20124;-65
2023/08/28 09:11:54;;;;;;;0.70;0.30;;;;;;;;;;5070229;28;20071;-65
2023/08/28 09:14:21;;;;;;;1.48;0.40;;;;;;;;;;5071316;28;20155;-65
2023/08/28 09:16:48;;;;;;;2.25;0.47;;;;;;;;;;5065530;28;20052;-66
2023/08/28 09:19:16;;;;;;;1.20;0.35;;;;;;;;;;5068394;28;20047;-65
2023/08/28 09:21:46;;;;;;;0.65;0.30;;;;;;;;;;5071450;28;20048;-66
2023/08/28 09:24:13;;;;;;;0.60;0.30;;;;;;;;;;5064677;28;20091;-66
2023/08/28 09:26:41;;;;;;;0.65;0.38;;;;;;;;;;5068485;28;20127;-66
2023/08/28 09:29:10;;;;;;;1.48;0.40;;;;;;;;;;5064009;28;20056;-65
2023/08/28 09:31:39;;;;;;;0.57;0.30;;;;;;;;;;5068521;28;20071;-65
2023/08/28 09:34:06;;;;;;;1.38;0.32;;;;;;;;;;5067046;28;20080;-65
2023/08/28 09:36:35;;;;;;;0.65;0.35;;;;;;;;;;5068913;28;20049;-65
2023/08/28 09:39:03;;;;;;;1.75;0.40;;;;;;;;;;5050890;28;20052;-65
2023/08/28 09:41:37;;;;;;;0.88;0.40;;;;;;;;;;5070487;28;20045;-66
2023/08/28 09:44:05;;;;;;;1.42;0.40;;;;;;;;;;5066671;28;20049;-65
2023/08/28 09:46:36;;;;;;;0.90;0.50;;;;;;;;;;5070177;28;20040;-65
2023/08/28 09:49:04;;;;;;;1.45;0.50;;;;;;;;;;5066584;28;20114;-65
2023/08/28 09:51:41;;;;;;;0.57;0.40;;;;;;;;;;5061974;28;20040;-65
2023/08/28 09:54:09;;;;;;;0.80;0.45;;;;;;;;;;5070317;28;20442;-66
2023/08/28 09:56:36;;;;;;;1.23;0.43;;;;;;;;;;5066927;28;20045;-66
2023/08/28 09:59:03;;;;;;;2.13;0.50;;;;;;;;;;5061641;28;20522;-65
2023/08/28 10:01:32;;;;;;;2.20;0.60;;;;;;;;;;5070820;28;20048;-65
2023/08/28 10:04:01;;;;;;;1.30;0.77;;;;;;;;;;5069965;28;20377;-65
2023/08/28 10:06:30;;;;;;;0.40;0.30;;;;;;;;;;5070272;28;20488;-66
2023/08/28 10:08:59;;;;;;;0.70;0.40;;;;;;;;;;5070985;28;20040;-66
2023/08/28 10:11:28;;;;;;;0.95;0.40;;;;;;;;;;5069868;28;20052;-66
2023/08/28 10:13:56;;;;;;;1.30;0.40;;;;;;;;;;5068729;28;20055;-66
2023/08/28 10:16:26;;;;;;;0.90;0.30;;;;;;;;;;5068555;28;20037;-65
2023/08/28 10:18:59;;;;;;;1.40;0.45;;;;;;;;;;5068943;28;20053;-65
2023/08/28 10:21:28;;;;;;;2.25;0.40;;;;;;;;;;5063426;28;20045;-66
2023/08/28 10:23:55;;;;;;;2.85;0.43;;;;;;;;;;5067678;28;20044;-67
2023/08/28 10:26:24;;;;;;;1.20;0.50;;;;;;;;;;5070431;28;20041;-65
2023/08/28 10:28:52;;;;;;;1.00;0.32;;;;;;;;;;5066692;28;20052;-66
2023/08/28 10:31:20;;;;;;;0.75;0.45;;;;;;;;;;5070282;28;20052;-66
2023/08/28 10:33:48;;;;;;;1.90;0.32;;;;;;;;;;5067542;28;20466;-66
2023/08/28 10:36:16;;;;;;;0.30;0.30;;;;;;;;;;5064392;28;20052;-66
2023/08/28 10:38:46;;;;;;;0.52;0.40;;;;;;;;;;5062524;28;20046;-66
2023/08/28 10:41:14;;;;;;;1.45;0.50;;;;;;;;;;5067985;28;20047;-65
2023/08/28 10:43:41;;;;;;;0.98;0.40;;;;;;;;;;5068350;28;20056;-66
2023/08/28 10:46:09;;;;;;;1.40;0.30;;;;;;;;;;5051426;28;20056;-66
2023/08/28 10:48:39;;;;;;;0.30;0.30;;;;;;;;;;5070288;28;20426;-66
2023/08/28 10:51:06;;;;;;;0.95;0.40;;;;;;;;;;5062969;28;20067;-67
2023/08/28 10:53:34;;;;;;;1.15;0.40;;;;;;;;;;5069854;28;20126;-66
2023/08/28 10:56:05;;;;;;;1.85;0.43;;;;;;;;;;5066302;28;20829;-66
2023/08/28 10:58:32;;;;;;;2.30;0.40;;;;;;;;;;5069965;28;20056;-66
2023/08/28 11:01:14;;;;;;;1.17;0.40;;;;;;;;;;5068752;28;20040;-66
2023/08/28 11:03:56;;;;;;;2.40;0.38;;;;;;;;;;5068942;28;20045;-66
2023/08/28 11:06:36;;;;;;;0.55;0.30;;;;;;;;;;5069688;28;20080;-67
2023/08/28 11:09:18;;;;;;;0.70;0.30;;;;;;;;;;5071541;28;20055;-66
2023/08/28 11:11:47;;;;;;;4.05;1.08;;;;;;;;;;5072568;28;20456;-66
2023/08/28 11:14:15;;;;;;;1.60;0.43;;;;;;;;;;5054185;28;20392;-66
2023/08/28 11:16:42;;;;;;;0.60;0.45;;;;;;;;;;5032827;28;20056;-66
2023/08/28 11:19:09;;;;;;;1.13;0.30;;;;;;;;;;5051443;28;20048;-66
2023/08/28 11:21:41;;;;;;;0.50;0.40;;;;;;;;;;5053515;28;20382;-66
2023/08/28 11:24:18;;;;;;;0.40;0.30;;;;;;;;;;5046063;28;20055;-65
2023/08/28 11:26:46;;;;;;;2.33;0.43;;;;;;;;;;5051160;28;20106;-66
2023/08/28 11:29:26;;;;;;;2.33;0.63;;;;;;;;;;5050733;28;20067;-66
2023/08/28 11:31:53;;;;;;;0.70;0.40;;;;;;;;;;5044073;28;20073;-66
2023/08/28 11:34:21;;;;;;;1.42;0.55;;;;;;;;;;5047657;28;20098;-66
2023/08/28 11:36:48;;;;;;;3.92;0.43;;;;;;;;;;5044186;28;20050;-65
2023/08/28 11:39:23;;;;;;;0.65;0.30;;;;;;;;;;5049794;28;20132;-66
2023/08/28 11:41:52;;;;;;;0.82;0.40;;;;;;;;;;5053226;28;20048;-66
2023/08/28 11:44:19;;;;;;;3.03;0.50;;;;;;;;;;5053516;28;20125;-65
2023/08/28 11:46:46;;;;;;;2.42;0.45;;;;;;;;;;5053227;28;20148;-67
2023/08/28 11:49:14;;;;;;;1.67;0.40;;;;;;;;;;5051606;28;20076;-65
2023/08/28 11:51:42;;;;;;;1.90;0.40;;;;;;;;;;5042901;28;21331;-65
2023/08/28 11:54:09;;;;;;;0.95;0.30;;;;;;;;;;5052284;28;20049;-66
2023/08/28 11:56:38;;;;;;;0.30;0.30;;;;;;;;;;5045101;28;20063;-66
2023/08/28 11:59:07;;;;;;;1.73;0.40;;;;;;;;;;5050876;28;20060;-66
2023/08/28 12:01:35;;;;;;;0.52;0.40;;;;;;;;;;5040291;28;20051;-66
2023/08/28 12:04:04;;;;;;;0.60;0.30;;;;;;;;;;5049349;28;20044;-66
2023/08/28 12:06:39;;;;;;;0.65;0.35;;;;;;;;;;5050640;28;20411;-66
2023/08/28 12:09:09;;;;;;;0.80;0.35;;;;;;;;;;5053344;28;20103;-66
2023/08/28 12:11:36;;;;;;;2.70;0.30;;;;;;;;;;5034390;28;20049;-66
2023/08/28 12:14:16;;;;;;;0.85;0.40;;;;;;;;;;5055730;28;20079;-65
2023/08/28 12:16:43;;;;;;;1.58;0.40;;;;;;;;;;5051550;28;20574;-66
2023/08/28 12:19:10;;;;;;;0.73;0.40;;;;;;;;;;5051238;28;20053;-66
2023/08/28 12:21:38;;;;;;;0.45;0.40;;;;;;;;;;5038508;28;20397;-66
2023/08/28 12:24:07;;;;;;;1.38;0.50;;;;;;;;;;5051701;28;20053;-66
2023/08/28 12:26:36;;;;;;;1.00;0.52;;;;;;;;;;5054464;28;20488;-66
2023/08/28 12:29:04;;;;;;;1.25;0.52;;;;;;;;;;5043462;28;20497;-67
2023/08/28 12:31:34;;;;;;;0.55;0.40;;;;;;;;;;5051319;28;20045;-67
2023/08/28 12:34:07;;;;;;;1.90;0.50;;;;;;;;;;5051174;28;20560;-67
2023/08/28 12:36:37;;;;;;;0.85;0.50;;;;;;;;;;5048746;28;20072;-66
2023/08/28 12:39:05;;;;;;;1.20;0.50;;;;;;;;;;5046674;28;20037;-66
2023/08/28 12:41:35;;;;;;;1.25;0.40;;;;;;;;;;5052087;28;20467;-66
2023/08/28 12:44:02;;;;;;;0.90;0.47;;;;;;;;;;5041606;28;20570;-67
2023/08/28 12:46:30;;;;;;;0.77;0.40;;;;;;;;;;5052649;28;20064;-67
2023/08/28 12:48:58;;;;;;;0.47;0.43;;;;;;;;;;5033506;28;20057;-66
2023/08/28 12:51:26;;;;;;;2.13;0.60;;;;;;;;;;5053474;28;20049;-67
2023/08/28 12:53:53;;;;;;;0.70;0.50;;;;;;;;;;5050388;28;20056;-67
2023/08/28 12:56:20;;;;;;;0.98;0.70;;;;;;;;;;5050491;28;20041;-67
2023/08/28 12:58:49;;;;;;;2.20;0.70;;;;;;;;;;5053736;28;20057;-67
2023/08/28 13:01:16;;;;;;;0.82;0.63;;;;;;;;;;5058548;28;20056;-66
2023/08/28 13:03:43;;;;;;;0.73;0.60;;;;;;;;;;5050106;28;20424;-67
2023/08/28 13:06:12;;;;;;;1.02;0.75;;;;;;;;;;5056997;28;20049;-67
2023/08/28 13:08:39;;;;;;;0.82;0.60;;;;;;;;;;5057305;28;20528;-66
2023/08/28 13:11:07;;;;;;;0.57;0.50;;;;;;;;;;5046775;28;20345;-68
2023/08/28 13:13:34;;;;;;;0.60;0.60;;;;;;;;;;5047642;28;20056;-67
2023/08/28 13:16:02;;;;;;;0.73;0.55;;;;;;;;;;5070430;28;20055;-67
2023/08/28 13:18:29;;;;;;;3.47;0.60;;;;;;;;;;5071161;28;20043;-67
2023/08/28 13:20:56;;;;;;;0.88;0.40;;;;;;;;;;5066172;28;20059;-67
2023/08/28 13:23:25;;;;;;;0.65;0.50;;;;;;;;;;5068934;28;20044;-66
2023/08/28 13:25:52;;;;;;;0.63;0.50;;;;;;;;;;5050748;28;20055;-67
2023/08/28 13:28:20;;;;;;;1.15;0.50;;;;;;;;;;5065550;28;20423;-66
2023/08/28 13:30:47;;;;;;;1.35;0.60;;;;;;;;;;5052775;28;20049;-67
2023/08/28 13:33:15;;;;;;;1.27;0.80;;;;;;;;;;5067316;28;20044;-67
2023/08/28 13:45:59;;;;;;;2.05;1.00;;;;;;;;;;5120211;27;1286293;-71
2023/08/28 13:48:26;;;;;;;28.75;3.15;;;;;;;;;;5148954;27;20043;-70
2023/08/28 13:50:54;;;;;;;2.75;0.90;;;;;;;;;;5144930;27;20104;-70
2023/08/28 13:53:21;;;;;;;1.35;0.90;;;;;;;;;;5130479;27;20051;-70
2023/08/28 13:55:48;;;;;;;1.60;0.80;;;;;;;;;;5148086;27;20401;-70
2023/08/28 13:58:19;;;;;;;1.02;0.80;;;;;;;;;;5147253;27;20073;-70
2023/08/28 14:00:47;;;;;;;2.00;0.98;;;;;;;;;;5144857;27;20059;-67
2023/08/28 14:03:15;;;;;;;1.70;1.00;;;;;;;;;;5147378;27;20047;-68
2023/08/28 14:05:42;;;;;;;1.60;0.80;;;;;;;;;;5140375;27;20043;-68
2023/08/28 14:08:10;;;;;;;2.67;0.90;;;;;;;;;;5137991;27;20532;-68
2023/08/28 14:10:37;;;;;;;1.33;0.75;;;;;;;;;;5128168;28;20055;-68
2023/08/28 14:13:04;;;;;;;1.00;0.80;;;;;;;;;;5127820;28;20052;-68
2023/08/28 14:15:31;;;;;;;1.00;0.70;;;;;;;;;;5127509;28;20054;-67
2023/08/28 14:17:59;;;;;;;0.70;0.60;;;;;;;;;;5127648;28;20039;-68
2023/08/28 14:20:28;;;;;;;1.77;0.70;;;;;;;;;;5127165;27;20058;-67
2023/08/28 14:22:55;;;;;;;1.13;0.90;;;;;;;;;;5127545;28;20050;-67
2023/08/28 14:25:22;;;;;;;1.20;0.63;;;;;;;;;;5126948;28;20043;-67
2023/08/28 14:27:51;;;;;;;1.25;0.70;;;;;;;;;;5109974;28;20100;-67
2023/08/28 14:30:18;;;;;;;1.73;0.70;;;;;;;;;;5122696;28;20050;-68
2023/08/28 14:32:47;;;;;;;1.50;0.63;;;;;;;;;;5127564;28;20047;-68
2023/08/28 14:35:15;;;;;;;1.08;0.60;;;;;;;;;;5128243;27;20424;-68
2023/08/28 14:37:46;;;;;;;0.60;0.60;;;;;;;;;;5126868;28;20067;-67
2023/08/28 14:40:13;;;;;;;2.28;0.77;;;;;;;;;;5126659;27;20043;-67
2023/08/28 14:42:41;;;;;;;1.35;0.70;;;;;;;;;;5127231;28;20047;-67
2023/08/28 14:45:09;;;;;;;0.63;0.60;;;;;;;;;;5108610;28;20078;-67
2023/08/28 14:47:36;;;;;;;0.93;0.57;;;;;;;;;;5126790;28;20043;-68
2023/08/28 14:50:03;;;;;;;4.28;0.75;;;;;;;;;;5127285;28;20490;-68
2023/08/28 14:52:31;;;;;;;1.20;0.85;;;;;;;;;;5117792;27;20622;-67
2023/08/28 14:55:00;;;;;;;0.88;0.88;;;;;;;;;;5127198;28;20047;-68
2023/08/28 14:57:27;;;;;;;0.88;0.80;;;;;;;;;;5112033;28;20055;-67
2023/08/28 14:59:54;;;;;;;1.10;0.80;;;;;;;;;;5113609;28;20043;-67